Butler, WI (53007)

11:57 PM CST on February 06, 2016 (GMT -0600)
Hickory Knoll | | Change Station
CLOSE
Current Station
Personal Weather Station
Location: Brookfield, WI
Elevation: 778 ft
Nearby Weather Stations

Elev 778 ft 43.10 °N, 88.10 °W | Updated 6 seconds ago

Overcast
Overcast
32.2 °F
Feels Like 27 °F
N
5.4
Wind Variable Wind from North
Gusts 5.4 mph

Today
High -- | Low -- °F
--% Chance of Precip.
Yesterday
High -- | Low -- °F
Precip. -- in
Pressure 30.01 in
Visibility 10.0 miles
Clouds Overcast 11000 ft
Windchill 27 °F
Dew Point 26 °F
Humidity 76%
Rainfall in
Snow Depth Not available.
7:02 AM 5:10 PM
Waning Crescent, 2% visible
METAR KMWC 070535Z AUTO 22006KT 10SM OVC110 00/M02 A3001 RMK AO2
Pressure 30.01 in
Visibility 10.0 miles
Clouds Overcast 11000 ft
Windchill 27 °F
Dew Point 26 °F
Humidity 76%
Rainfall in
Snow Depth Not available.
7:02 AM 5:10 PM
Waning Crescent, 2% visible
METAR KMWC 070535Z AUTO 22006KT 10SM OVC110 00/M02 A3001 RMK AO2

10-Day Weather Forecast

Almanac

Astronomy

Feb. 06, 2016 Rise Set
Actual Time
Civil Twilight
Nautical Twilight
Astronomical Twilight
Moon
Length of Visible Light
Length of Day
Tomorrow will be .
, % of the Moon is Illuminated

Today's Extremes

State Highs State Lows

Community

WunderPhotos

Upload Photos

1,891,167 photos uploaded!

WunderBlog® & News

Nearby

Air Quality

  Air Quality AQ Index Pollutant
Not available.

Snow Depth

Station Depth Elevation

Earthquake Activity

City Distance Mag. Time & Date
Minimum magnitude displayed is 2.5.

Coastal Water Temperatures

Place Temperature

Stations

Nearby Weather Stations

Station Location Temp. Windchill Dew Point Humidity Wind Precip. Elev Updated Type
                   

Watches & Warnings

There are currently no watches in effect.